createdAt,value
2023-04-06T00:00:39.768Z,62.76
2023-04-06T00:01:39.770Z,62.76
2023-04-06T00:02:39.767Z,62.35
2023-04-06T00:03:44.803Z,62.66
2023-04-06T00:04:39.717Z,62.97
2023-04-06T00:05:39.704Z,62.14
2023-04-06T00:06:39.700Z,62.35
2023-04-06T00:07:39.680Z,62.14
2023-04-06T00:08:39.681Z,62.87
2023-04-06T00:09:39.660Z,63.28
2023-04-06T00:10:39.647Z,63.07
2023-04-06T00:11:39.649Z,63.28
2023-04-06T00:12:39.626Z,63.38
2023-04-06T00:13:39.615Z,62.66
2023-04-06T00:14:44.643Z,63.07
2023-04-06T00:15:39.610Z,63.25
2023-04-06T00:16:39.622Z,63.56
2023-04-06T00:17:39.610Z,62.94
2023-04-06T00:18:39.555Z,63.25
2023-04-06T00:19:39.546Z,62.94
2023-04-06T00:20:39.534Z,63.15
2023-04-06T00:21:39.601Z,62.94
2023-04-06T00:22:39.510Z,63.35
2023-04-06T00:23:39.500Z,63.25
2023-04-06T00:24:39.495Z,63.79
2023-04-06T00:25:44.503Z,63.46
2023-04-06T00:26:39.472Z,63.56
2023-04-06T00:27:39.469Z,63.56
2023-04-06T00:28:39.447Z,63.56
2023-04-06T00:29:39.433Z,63.35
2023-04-06T00:30:39.445Z,62.63
2023-04-06T00:31:39.466Z,62.73
2023-04-06T00:32:39.428Z,62.11
2023-04-06T00:33:39.398Z,62.32
2023-04-06T00:34:39.380Z,62.32
2023-04-06T00:35:39.439Z,62.52
2023-04-06T00:36:44.393Z,62.42
2023-04-06T00:37:39.346Z,62.21
2023-04-06T00:38:39.330Z,62.84
2023-04-06T00:39:39.330Z,62.21
2023-04-06T00:40:39.307Z,62.11
2023-04-06T00:41:39.308Z,61.38
2023-04-06T00:42:39.289Z,61.38
2023-04-06T00:43:39.276Z,61.69
2023-04-06T00:44:39.263Z,62.01
2023-04-06T00:45:39.279Z,62.32
2023-04-06T00:46:39.287Z,62.21
2023-04-06T00:47:44.296Z,62.73
2023-04-06T00:48:39.217Z,62.73
2023-04-06T00:49:39.212Z,62.42
2023-04-06T00:50:39.204Z,62.73
2023-04-06T00:51:39.212Z,62.42
2023-04-06T00:52:39.175Z,62.11
2023-04-06T00:53:39.169Z,62.52
2023-04-06T00:54:39.150Z,62.11
2023-04-06T00:55:39.147Z,62.52
2023-04-06T00:56:39.139Z,62.73
2023-04-06T00:57:39.125Z,62.21
2023-04-06T00:58:44.126Z,61.90
2023-04-06T00:59:39.132Z,62.32
2023-04-06T01:00:39.082Z,62.11
2023-04-06T01:01:39.121Z,62.21
2023-04-06T01:02:39.154Z,62.42
2023-04-06T01:03:39.061Z,62.63
2023-04-06T01:04:39.040Z,62.63
2023-04-06T01:05:39.076Z,62.55
2023-04-06T01:06:39.032Z,62.45
2023-04-06T01:07:39.008Z,62.45
2023-04-06T01:08:39.004Z,62.87
2023-04-06T01:09:44.017Z,63.51
2023-04-06T01:10:38.973Z,63.10
2023-04-06T01:11:38.974Z,64.21
2023-04-06T01:12:38.960Z,64.21
2023-04-06T01:13:38.937Z,64.42
2023-04-06T01:14:38.925Z,64.45
2023-04-06T01:15:38.965Z,64.83
2023-04-06T01:16:38.911Z,64.42
2023-04-06T01:17:38.916Z,65.17
2023-04-06T01:18:38.905Z,65.07
2023-04-06T01:19:38.874Z,65.17
2023-04-06T01:20:43.880Z,65.28
2023-04-06T01:21:38.862Z,65.48
2023-04-06T01:22:38.847Z,66.35
2023-04-06T01:23:38.829Z,66.41
2023-04-06T01:24:38.819Z,66.11
2023-04-06T01:25:38.805Z,66.52
2023-04-06T01:26:38.802Z,66.62
2023-04-06T01:27:38.809Z,66.83
2023-04-06T01:28:38.770Z,66.75
2023-04-06T01:29:38.761Z,67.58
2023-04-06T01:30:38.748Z,67.66
2023-04-06T01:31:43.987Z,67.90
2023-04-06T01:32:38.764Z,67.90
2023-04-06T01:33:38.724Z,67.90
2023-04-06T01:34:38.774Z,67.90
2023-04-06T01:35:38.751Z,67.90
2023-04-06T01:36:38.680Z,67.90
2023-04-06T01:37:38.678Z,68.10
2023-04-06T01:38:38.661Z,68.21
2023-04-06T01:39:38.672Z,67.90
2023-04-06T01:40:38.639Z,68.00
2023-04-06T01:41:38.624Z,67.86
2023-04-06T01:42:43.649Z,67.58
2023-04-06T01:43:38.600Z,68.21
2023-04-06T01:44:38.586Z,67.97
2023-04-06T01:45:38.588Z,68.52
2023-04-06T01:46:38.600Z,68.10
2023-04-06T01:47:38.639Z,68.73
2023-04-06T01:48:38.540Z,68.31
2023-04-06T01:49:38.531Z,68.00
2023-04-06T01:50:38.545Z,68.21
2023-04-06T01:51:38.518Z,68.10
2023-04-06T01:52:38.507Z,68.34
2023-04-06T01:53:43.511Z,68.24
2023-04-06T01:54:38.483Z,68.65
2023-04-06T01:55:38.466Z,68.55
2023-04-06T01:56:38.451Z,69.27
2023-04-06T01:57:38.463Z,69.07
2023-04-06T01:58:38.434Z,69.27
2023-04-06T01:59:38.501Z,69.27
2023-04-06T02:00:38.441Z,68.65
2023-04-06T02:01:38.426Z,68.65
2023-04-06T02:02:38.446Z,69.27
2023-04-06T02:03:38.378Z,69.38
2023-04-06T02:04:43.384Z,69.48
2023-04-06T02:05:38.349Z,69.69
2023-04-06T02:06:38.364Z,69.90
2023-04-06T02:07:38.341Z,70.21
2023-04-06T02:08:38.316Z,70.00
2023-04-06T02:09:38.312Z,69.69
2023-04-06T02:10:38.300Z,69.69
2023-04-06T02:11:38.282Z,70.00
2023-04-06T02:12:38.280Z,69.27
2023-04-06T02:13:38.261Z,69.27
2023-04-06T02:14:38.246Z,68.96
2023-04-06T02:15:43.271Z,68.90
2023-04-06T02:16:38.248Z,68.59
2023-04-06T02:17:38.250Z,68.59
2023-04-06T02:18:38.206Z,68.38
2023-04-06T02:19:38.197Z,68.79
2023-04-06T02:20:38.182Z,69.10
2023-04-06T02:21:38.183Z,69.10
2023-04-06T02:22:38.189Z,68.90
2023-04-06T02:23:38.151Z,69.62
2023-04-06T02:24:38.135Z,69.31
2023-04-06T02:25:38.128Z,70.35
2023-04-06T02:26:43.135Z,70.14
2023-04-06T02:27:38.125Z,69.73
2023-04-06T02:28:38.088Z,70.56
2023-04-06T02:29:38.108Z,70.66
2023-04-06T02:30:38.070Z,71.39
2023-04-06T02:31:38.079Z,71.91
2023-04-06T02:32:38.095Z,72.14
2023-04-06T02:33:38.048Z,72.04
2023-04-06T02:34:38.021Z,71.70
2023-04-06T02:35:38.028Z,72.32
2023-04-06T02:36:37.999Z,71.42
2023-04-06T02:37:43.042Z,71.00
2023-04-06T02:38:37.994Z,70.59
2023-04-06T02:39:37.990Z,71.31
2023-04-06T02:40:37.953Z,70.28
2023-04-06T02:41:37.945Z,70.62
2023-04-06T02:42:37.944Z,71.31
2023-04-06T02:43:37.936Z,70.17
2023-04-06T02:44:37.913Z,70.00
2023-04-06T02:45:37.929Z,69.76
2023-04-06T02:46:37.891Z,69.76
2023-04-06T02:47:37.921Z,69.86
2023-04-06T02:48:42.889Z,69.24
2023-04-06T02:49:37.857Z,69.79
2023-04-06T02:50:37.839Z,69.27
2023-04-06T02:51:37.843Z,69.58
2023-04-06T02:52:37.836Z,69.37
2023-04-06T02:53:37.836Z,69.76
2023-04-06T02:54:37.800Z,69.58
2023-04-06T02:55:37.788Z,69.37
2023-04-06T02:56:37.777Z,69.06
2023-04-06T02:57:37.786Z,69.68
2023-04-06T02:58:37.758Z,69.68
2023-04-06T02:59:42.826Z,69.68
2023-04-06T03:00:37.759Z,68.85
2023-04-06T03:01:37.763Z,69.06
2023-04-06T03:02:37.907Z,69.17
2023-04-06T03:03:37.864Z,69.58
2023-04-06T03:04:37.709Z,69.37
2023-04-06T03:05:37.675Z,69.37
2023-04-06T03:06:37.661Z,69.92
2023-04-06T03:07:37.668Z,69.71
2023-04-06T03:08:37.639Z,69.71
2023-04-06T03:09:37.652Z,69.58
2023-04-06T03:10:42.639Z,69.40
2023-04-06T03:11:37.622Z,69.79
2023-04-06T03:12:37.603Z,68.99
2023-04-06T03:13:37.581Z,68.99
2023-04-06T03:14:37.589Z,69.17
2023-04-06T03:15:37.603Z,69.51
2023-04-06T03:16:37.546Z,69.40
2023-04-06T03:17:37.562Z,69.17
2023-04-06T03:18:37.529Z,69.09
2023-04-06T03:19:37.520Z,69.17
2023-04-06T03:20:37.500Z,69.20
2023-04-06T03:21:42.523Z,68.99
2023-04-06T03:22:37.486Z,69.51
2023-04-06T03:23:37.465Z,68.99
2023-04-06T03:24:37.452Z,69.40
2023-04-06T03:25:37.462Z,68.99
2023-04-06T03:26:37.432Z,69.20
2023-04-06T03:27:37.439Z,69.09
2023-04-06T03:28:37.415Z,68.88
2023-04-06T03:29:37.395Z,69.20
2023-04-06T03:30:37.387Z,69.40
2023-04-06T03:31:37.416Z,69.40
2023-04-06T03:32:42.431Z,69.71
2023-04-06T03:33:37.368Z,69.51
2023-04-06T03:34:37.334Z,70.06
2023-04-06T03:35:37.364Z,69.82
2023-04-06T03:36:37.315Z,70.23
2023-04-06T03:37:37.314Z,70.34
2023-04-06T03:38:38.693Z,71.31
2023-04-06T03:39:37.309Z,69.92
2023-04-06T03:40:37.280Z,70.13
2023-04-06T03:41:37.296Z,70.13
2023-04-06T03:42:37.257Z,69.82
2023-04-06T03:43:42.259Z,70.13
2023-04-06T03:44:37.228Z,70.13
2023-04-06T03:45:37.222Z,70.23
2023-04-06T03:46:37.225Z,69.92
2023-04-06T03:47:37.262Z,71.38
2023-04-06T03:48:37.180Z,71.17
2023-04-06T03:49:39.870Z,71.41
2023-04-06T03:50:37.153Z,71.72
2023-04-06T03:51:37.152Z,71.83
2023-04-06T03:52:37.150Z,72.34
2023-04-06T03:53:37.123Z,72.24
2023-04-06T03:54:42.129Z,72.03
2023-04-06T03:55:37.098Z,72.14
2023-04-06T03:56:37.093Z,72.14
2023-04-06T03:57:37.120Z,72.03
2023-04-06T03:58:37.073Z,72.24
2023-04-06T03:59:37.143Z,71.93
2023-04-06T04:00:37.045Z,72.45
2023-04-06T04:01:37.137Z,72.03
2023-04-06T04:02:37.109Z,72.24
2023-04-06T04:03:37.098Z,72.34
2023-04-06T04:04:37.061Z,72.03
2023-04-06T04:05:42.008Z,72.03
2023-04-06T04:06:36.976Z,72.45
2023-04-06T04:07:36.971Z,72.24
2023-04-06T04:08:36.976Z,72.03
2023-04-06T04:09:36.948Z,72.34
2023-04-06T04:10:36.941Z,72.45
2023-04-06T04:11:36.920Z,71.93
2023-04-06T04:12:36.913Z,72.24
2023-04-06T04:13:36.919Z,71.72
2023-04-06T04:14:36.891Z,72.24
2023-04-06T04:15:36.896Z,72.24
2023-04-06T04:16:41.905Z,72.03
2023-04-06T04:17:36.918Z,71.93
2023-04-06T04:18:36.843Z,71.41
2023-04-06T04:19:36.830Z,71.41
2023-04-06T04:20:36.819Z,70.97
2023-04-06T04:21:36.818Z,70.89
2023-04-06T04:22:36.796Z,70.86
2023-04-06T04:23:37.481Z,70.48
2023-04-06T04:24:36.787Z,70.34
2023-04-06T04:25:36.776Z,69.82
2023-04-06T04:26:36.758Z,69.43
2023-04-06T04:27:41.797Z,69.30
2023-04-06T04:28:36.739Z,69.40
2023-04-06T04:29:36.747Z,68.81
2023-04-06T04:30:36.713Z,68.78
2023-04-06T04:31:36.759Z,68.37
2023-04-06T04:32:36.699Z,67.95
2023-04-06T04:33:36.707Z,67.74
2023-04-06T04:34:36.670Z,67.95
2023-04-06T04:35:36.698Z,66.81
2023-04-06T04:36:36.663Z,67.85
2023-04-06T04:37:36.641Z,66.60
2023-04-06T04:38:41.660Z,67.85
2023-04-06T04:39:36.630Z,66.81
2023-04-06T04:40:36.620Z,67.33
2023-04-06T04:41:36.613Z,66.18
2023-04-06T04:42:36.583Z,66.28
2023-04-06T04:43:36.589Z,66.39
2023-04-06T04:44:36.561Z,66.36
2023-04-06T04:45:36.601Z,65.94
2023-04-06T04:46:36.571Z,66.28
2023-04-06T04:47:36.598Z,66.28
2023-04-06T04:48:36.531Z,65.77
2023-04-06T04:49:41.534Z,65.87
2023-04-06T04:50:36.501Z,64.62
2023-04-06T04:51:36.499Z,64.62
2023-04-06T04:52:36.474Z,64.83
2023-04-06T04:53:36.480Z,64.94
2023-04-06T04:54:36.457Z,65.35
2023-04-06T04:55:36.446Z,64.83
2023-04-06T04:56:36.447Z,64.94
2023-04-06T04:57:36.437Z,64.94
2023-04-06T04:58:36.421Z,65.04
2023-04-06T04:59:36.508Z,65.14
2023-04-06T05:00:41.431Z,65.25
2023-04-06T05:01:47.656Z,65.25
2023-04-06T05:02:36.439Z,65.14
2023-04-06T05:03:36.402Z,65.04
2023-04-06T05:04:36.343Z,64.90
2023-04-06T05:05:36.333Z,64.59
2023-04-06T05:06:36.329Z,64.90
2023-04-06T05:07:36.313Z,65.22
2023-04-06T05:08:36.307Z,65.04
2023-04-06T05:09:36.302Z,64.90
2023-04-06T05:10:36.291Z,65.11
2023-04-06T05:11:41.301Z,65.32
2023-04-06T05:12:36.257Z,65.32
2023-04-06T05:13:36.256Z,65.11
2023-04-06T05:14:36.302Z,65.01
2023-04-06T05:15:36.285Z,64.49
2023-04-06T05:16:36.306Z,65.22
2023-04-06T05:17:36.289Z,64.59
2023-04-06T05:18:36.238Z,64.59
2023-04-06T05:19:36.218Z,64.67
2023-04-06T05:20:36.200Z,64.59
2023-04-06T05:21:36.198Z,64.56
2023-04-06T05:22:41.176Z,64.56
2023-04-06T05:23:36.150Z,64.70
2023-04-06T05:24:36.153Z,65.22
2023-04-06T05:25:36.113Z,65.19
2023-04-06T05:26:36.102Z,65.50
2023-04-06T05:27:36.105Z,65.39
2023-04-06T05:28:36.094Z,65.29
2023-04-06T05:29:36.073Z,65.32
2023-04-06T05:30:36.060Z,65.22
2023-04-06T05:31:36.116Z,64.70
2023-04-06T05:32:36.118Z,65.01
2023-04-06T05:33:41.082Z,64.67
2023-04-06T05:34:36.016Z,65.19
2023-04-06T05:35:36.038Z,65.01
2023-04-06T05:36:35.995Z,65.11
2023-04-06T05:37:35.983Z,65.53
2023-04-06T05:38:35.974Z,65.97
2023-04-06T05:39:35.970Z,66.50
2023-04-06T05:40:35.942Z,66.67
2023-04-06T05:41:35.930Z,66.15
2023-04-06T05:42:35.923Z,65.91
2023-04-06T05:43:35.922Z,65.81
2023-04-06T05:44:40.917Z,65.39
2023-04-06T05:45:35.909Z,65.39
2023-04-06T05:46:36.003Z,64.85
2023-04-06T05:47:35.910Z,64.51
2023-04-06T05:48:35.999Z,64.27
2023-04-06T05:49:35.841Z,62.27
2023-04-06T05:50:35.827Z,62.35
2023-04-06T05:51:35.821Z,62.01
2023-04-06T05:52:35.805Z,61.69
2023-04-06T05:53:35.797Z,61.59
2023-04-06T05:54:35.777Z,61.52
2023-04-06T05:55:40.799Z,61.86
2023-04-06T05:56:35.757Z,62.68
2023-04-06T05:57:35.751Z,62.68
2023-04-06T05:58:35.742Z,62.27
2023-04-06T05:59:35.762Z,62.16
2023-04-06T06:00:35.712Z,62.68
2023-04-06T06:01:35.762Z,62.48
2023-04-06T06:02:35.788Z,62.27
2023-04-06T06:03:35.704Z,62.68
2023-04-06T06:04:35.748Z,62.06
2023-04-06T06:05:35.665Z,61.55
2023-04-06T06:06:40.674Z,61.86
2023-04-06T06:07:35.667Z,61.86
2023-04-06T06:08:35.622Z,61.96
2023-04-06T06:09:35.623Z,61.96
2023-04-06T06:10:35.597Z,62.06
2023-04-06T06:11:35.583Z,62.06
2023-04-06T06:12:35.571Z,61.44
2023-04-06T06:13:35.571Z,62.06
2023-04-06T06:14:35.551Z,62.06
2023-04-06T06:15:35.544Z,61.76
2023-04-06T06:16:35.546Z,61.76
2023-04-06T06:17:40.574Z,62.06
2023-04-06T06:18:35.532Z,61.76
2023-04-06T06:19:35.717Z,61.86
2023-04-06T06:20:35.502Z,61.76
2023-04-06T06:21:35.505Z,60.61
2023-04-06T06:22:35.461Z,60.69
2023-04-06T06:23:35.463Z,60.82
2023-04-06T06:24:35.445Z,60.48
2023-04-06T06:25:35.423Z,60.27
2023-04-06T06:26:35.409Z,59.24
2023-04-06T06:27:35.412Z,59.75
2023-04-06T06:28:40.418Z,59.75
2023-04-06T06:29:35.379Z,59.21
2023-04-06T06:30:35.384Z,59.00
2023-04-06T06:31:35.385Z,59.00
2023-04-06T06:32:35.420Z,58.59
2023-04-06T06:33:35.348Z,58.38
2023-04-06T06:34:35.322Z,58.38
2023-04-06T06:35:35.331Z,59.00
2023-04-06T06:36:35.586Z,59.31
2023-04-06T06:37:35.318Z,58.38
2023-04-06T06:38:35.296Z,58.48
2023-04-06T06:39:40.309Z,58.38
2023-04-06T06:40:35.317Z,58.25
2023-04-06T06:41:35.266Z,58.28
2023-04-06T06:42:35.236Z,57.97
2023-04-06T06:43:35.241Z,58.04
2023-04-06T06:44:35.220Z,57.94
2023-04-06T06:45:35.224Z,57.76
2023-04-06T06:46:35.196Z,57.42
2023-04-06T06:47:35.227Z,58.07
2023-04-06T06:48:35.182Z,58.15
2023-04-06T06:49:35.161Z,58.67
2023-04-06T06:50:40.176Z,58.25
2023-04-06T06:51:35.151Z,58.15
2023-04-06T06:52:35.189Z,58.02
2023-04-06T06:53:35.136Z,58.12
2023-04-06T06:54:35.114Z,57.89
2023-04-06T06:55:35.089Z,56.93
2023-04-06T06:56:35.077Z,55.98
2023-04-06T06:57:35.070Z,55.85
2023-04-06T06:58:35.070Z,54.77
2023-04-06T06:59:35.100Z,54.33
2023-04-06T07:00:35.034Z,52.29
2023-04-06T07:01:40.112Z,51.45
2023-04-06T07:02:35.022Z,50.83
2023-04-06T07:03:35.022Z,50.62
2023-04-06T07:04:35.031Z,50.52
2023-04-06T07:05:34.988Z,50.01
2023-04-06T07:06:34.983Z,50.11
2023-04-06T07:07:34.950Z,50.24
2023-04-06T07:08:35.004Z,51.47
2023-04-06T07:09:34.945Z,50.46
2023-04-06T07:10:34.921Z,50.80
2023-04-06T07:11:34.918Z,50.88
2023-04-06T07:12:39.927Z,50.54
2023-04-06T07:13:34.909Z,49.90
2023-04-06T07:14:34.889Z,49.88
2023-04-06T07:15:34.860Z,50.19
2023-04-06T07:16:34.897Z,49.35
2023-04-06T07:17:34.891Z,49.43
2023-04-06T07:18:36.232Z,48.01
2023-04-06T07:19:34.820Z,49.16
2023-04-06T07:20:34.849Z,50.29
2023-04-06T07:21:34.844Z,50.19
2023-04-06T07:22:34.788Z,51.16
2023-04-06T07:23:39.884Z,51.42
2023-04-06T07:24:34.761Z,53.32
2023-04-06T07:25:34.762Z,53.94
2023-04-06T07:26:34.743Z,52.55
2023-04-06T07:27:34.731Z,52.32
2023-04-06T07:28:34.721Z,52.61
2023-04-06T07:29:34.740Z,51.81
2023-04-06T07:30:36.889Z,52.73
2023-04-06T07:31:34.756Z,52.14
2023-04-06T07:32:34.723Z,53.17
2023-04-06T07:33:34.662Z,52.66
2023-04-06T07:34:39.672Z,53.61
2023-04-06T07:35:34.697Z,52.68
2023-04-06T07:36:34.624Z,53.61
2023-04-06T07:37:34.614Z,54.46
2023-04-06T07:38:34.600Z,55.07
2023-04-06T07:39:34.620Z,53.71
2023-04-06T07:40:34.599Z,53.68
2023-04-06T07:41:34.604Z,52.63
2023-04-06T07:42:34.556Z,52.50
2023-04-06T07:43:34.545Z,52.17
2023-04-06T07:44:34.552Z,51.63
2023-04-06T07:45:39.613Z,50.99
2023-04-06T07:46:34.562Z,50.24
2023-04-06T07:47:34.538Z,50.68
2023-04-06T07:48:34.497Z,51.30
2023-04-06T07:49:34.483Z,50.24
2023-04-06T07:50:34.469Z,51.15
2023-04-06T07:51:34.450Z,50.82
2023-04-06T07:52:36.977Z,49.02
2023-04-06T07:53:34.437Z,47.89
2023-04-06T07:54:34.433Z,49.54
2023-04-06T07:55:34.437Z,47.38
2023-04-06T07:56:39.425Z,47.41
2023-04-06T07:57:34.385Z,47.81
2023-04-06T07:58:34.375Z,47.81
2023-04-06T07:59:34.394Z,48.00
2023-04-06T08:00:34.365Z,47.59
2023-04-06T08:01:34.341Z,47.56
2023-04-06T08:02:34.483Z,46.64
2023-04-06T08:03:34.627Z,47.28
2023-04-06T08:04:34.364Z,47.28
2023-04-06T08:05:34.362Z,47.69
2023-04-06T08:06:34.285Z,48.33
2023-04-06T08:07:39.298Z,48.22
2023-04-06T08:08:34.261Z,47.71
2023-04-06T08:09:34.260Z,47.69
2023-04-06T08:10:34.240Z,48.41
2023-04-06T08:11:34.251Z,47.28
2023-04-06T08:12:34.217Z,47.89
2023-04-06T08:13:34.208Z,48.28
2023-04-06T08:14:34.204Z,47.64
2023-04-06T08:15:34.192Z,47.44
2023-04-06T08:16:34.168Z,47.28
2023-04-06T08:17:34.183Z,47.89
2023-04-06T08:18:39.171Z,48.41
2023-04-06T08:19:34.156Z,48.86
2023-04-06T08:20:34.127Z,49.46
2023-04-06T08:21:34.127Z,49.07
2023-04-06T08:22:34.110Z,49.48
2023-04-06T08:23:34.092Z,49.69
2023-04-06T08:24:34.088Z,49.77
2023-04-06T08:25:34.072Z,48.97
2023-04-06T08:26:34.065Z,50.24
2023-04-06T08:27:34.073Z,51.07
2023-04-06T08:28:34.033Z,50.32
2023-04-06T08:29:39.057Z,50.51
2023-04-06T08:30:34.015Z,50.07
2023-04-06T08:31:34.010Z,48.92
2023-04-06T08:32:34.015Z,48.41
2023-04-06T08:33:33.980Z,48.16
2023-04-06T08:34:33.999Z,47.83
2023-04-06T08:35:33.953Z,46.58
2023-04-06T08:36:33.950Z,46.78
2023-04-06T08:37:33.928Z,46.48
2023-04-06T08:38:33.920Z,46.68
2023-04-06T08:39:33.918Z,46.66
2023-04-06T08:40:38.914Z,45.51
2023-04-06T08:41:33.891Z,44.85
2023-04-06T08:42:33.877Z,44.76
2023-04-06T08:43:33.880Z,45.18
2023-04-06T08:44:33.914Z,44.78
2023-04-06T08:45:33.841Z,45.39
2023-04-06T08:46:33.980Z,44.78
2023-04-06T08:47:33.846Z,44.47
2023-04-06T08:48:33.811Z,45.10
2023-04-06T08:49:33.800Z,44.49
2023-04-06T08:50:33.786Z,45.20
2023-04-06T08:51:38.794Z,45.72
2023-04-06T08:52:33.763Z,46.25
2023-04-06T08:53:33.752Z,46.56
2023-04-06T08:54:33.759Z,46.86
2023-04-06T08:55:33.725Z,46.44
2023-04-06T08:56:33.715Z,46.00
2023-04-06T08:57:33.707Z,45.67
2023-04-06T08:58:38.270Z,45.70
2023-04-06T08:59:33.803Z,45.90
2023-04-06T09:00:33.679Z,45.90
2023-04-06T09:01:33.693Z,46.68
2023-04-06T09:02:38.729Z,47.31
2023-04-06T09:03:33.777Z,47.40
2023-04-06T09:04:33.706Z,46.33
2023-04-06T09:05:33.615Z,45.20
2023-04-06T09:06:33.625Z,45.51
2023-04-06T09:07:33.594Z,45.29
2023-04-06T09:08:33.584Z,44.35
2023-04-06T09:09:33.577Z,43.71
2023-04-06T09:10:33.556Z,44.28
2023-04-06T09:11:33.547Z,42.77
2023-04-06T09:12:33.540Z,44.51
2023-04-06T09:13:38.543Z,43.79
2023-04-06T09:14:33.520Z,43.79
2023-04-06T09:15:33.523Z,44.20
2023-04-06T09:16:33.603Z,43.69
2023-04-06T09:17:33.490Z,43.90
2023-04-06T09:18:33.484Z,43.55
2023-04-06T09:19:33.468Z,42.59
2023-04-06T09:20:33.446Z,42.49
2023-04-06T09:21:33.445Z,41.74
2023-04-06T09:22:33.424Z,41.67
2023-04-06T09:23:33.493Z,43.00
2023-04-06T09:24:38.438Z,44.67
2023-04-06T09:25:33.387Z,44.37
2023-04-06T09:26:33.379Z,44.85
2023-04-06T09:27:33.374Z,44.41
2023-04-06T09:28:33.354Z,44.08
2023-04-06T09:29:33.350Z,42.43
2023-04-06T09:30:33.337Z,41.98
2023-04-06T09:31:33.490Z,40.92
2023-04-06T09:32:33.352Z,40.68
2023-04-06T09:33:33.305Z,40.46
2023-04-06T09:34:33.307Z,40.37
2023-04-06T09:35:38.330Z,40.41
2023-04-06T09:36:33.284Z,40.72
2023-04-06T09:37:33.263Z,41.75
2023-04-06T09:38:33.244Z,40.82
2023-04-06T09:39:33.240Z,40.62
2023-04-06T09:40:33.219Z,40.39
2023-04-06T09:41:33.216Z,40.80
2023-04-06T09:42:33.228Z,41.11
2023-04-06T09:43:33.209Z,40.78
2023-04-06T09:44:33.196Z,40.58
2023-04-06T09:45:33.162Z,40.48
2023-04-06T09:46:55.172Z,40.70
2023-04-06T09:47:34.247Z,40.64
2023-04-06T09:48:33.188Z,40.45
2023-04-06T09:49:33.133Z,42.12
2023-04-06T09:50:33.112Z,42.73
2023-04-06T09:51:35.596Z,42.59
2023-04-06T09:52:33.088Z,41.63
2023-04-06T09:53:33.070Z,40.60
2023-04-06T09:54:33.074Z,40.91
2023-04-06T09:55:33.075Z,40.70
2023-04-06T09:56:33.036Z,40.80
2023-04-06T09:57:38.055Z,41.19
2023-04-06T09:58:33.137Z,39.97
2023-04-06T09:59:33.084Z,39.15
2023-04-06T10:00:33.031Z,38.73
2023-04-06T10:01:33.081Z,38.63
2023-04-06T10:02:33.073Z,37.84
2023-04-06T10:03:33.071Z,39.60
2023-04-06T10:04:32.957Z,41.25
2023-04-06T10:05:32.932Z,41.45
2023-04-06T10:06:32.919Z,42.14
2023-04-06T10:07:32.946Z,41.45
2023-04-06T10:08:37.923Z,41.43
2023-04-06T10:09:32.883Z,41.41
2023-04-06T10:10:32.883Z,41.21
2023-04-06T10:11:32.858Z,41.49
2023-04-06T10:12:32.888Z,39.85
2023-04-06T10:13:32.847Z,39.04
2023-04-06T10:14:32.828Z,39.02
2023-04-06T10:15:32.826Z,37.68
2023-04-06T10:16:32.853Z,37.88
2023-04-06T10:17:32.836Z,38.29
2023-04-06T10:18:32.805Z,39.22
2023-04-06T10:19:37.861Z,39.32
2023-04-06T10:20:32.762Z,39.42
2023-04-06T10:21:32.744Z,39.12
2023-04-06T10:22:32.747Z,38.81
2023-04-06T10:23:33.342Z,38.79
2023-04-06T10:24:32.715Z,39.30
2023-04-06T10:25:32.707Z,38.57
2023-04-06T10:26:32.715Z,37.98
2023-04-06T10:27:32.692Z,38.51
2023-04-06T10:28:32.670Z,37.84
2023-04-06T10:29:32.656Z,38.67
2023-04-06T10:30:37.679Z,37.95
2023-04-06T10:31:32.641Z,38.99
2023-04-06T10:32:32.701Z,40.11
2023-04-06T10:33:32.615Z,40.31
2023-04-06T10:34:32.650Z,40.62
2023-04-06T10:35:32.615Z,39.58
2023-04-06T10:36:32.581Z,38.85
2023-04-06T10:37:32.569Z,38.83
2023-04-06T10:38:32.585Z,37.37
2023-04-06T10:39:32.555Z,36.65
2023-04-06T10:40:32.552Z,36.93
2023-04-06T10:41:37.552Z,36.90
2023-04-06T10:42:32.554Z,34.95
2023-04-06T10:43:32.517Z,34.03
2023-04-06T10:44:32.508Z,34.03
2023-04-06T10:45:32.543Z,34.01
2023-04-06T10:46:32.492Z,34.31
2023-04-06T10:47:32.475Z,35.14
2023-04-06T10:48:32.447Z,34.67
2023-04-06T10:49:32.452Z,34.75
2023-04-06T10:50:32.483Z,34.67
2023-04-06T10:51:32.423Z,35.17
2023-04-06T10:52:37.427Z,34.47
2023-04-06T10:53:32.397Z,34.85
2023-04-06T10:54:32.385Z,33.33
2023-04-06T10:55:32.390Z,33.55
2023-04-06T10:56:32.362Z,33.26
2023-04-06T10:57:32.401Z,32.87
2023-04-06T10:58:32.335Z,34.61
2023-04-06T10:59:32.379Z,33.91
2023-04-06T11:00:47.117Z,34.00
2023-04-06T11:01:32.344Z,33.80
2023-04-06T11:02:32.379Z,34.92
2023-04-06T11:03:37.299Z,35.26
2023-04-06T11:04:32.289Z,35.34
2023-04-06T11:05:32.264Z,34.92
2023-04-06T11:06:32.275Z,34.92
2023-04-06T11:07:32.273Z,34.11
2023-04-06T11:08:32.235Z,33.58
2023-04-06T11:09:32.207Z,34.28
2023-04-06T11:10:32.198Z,33.37
2023-04-06T11:11:32.192Z,33.25
2023-04-06T11:12:32.171Z,33.13
2023-04-06T11:13:32.203Z,33.44
2023-04-06T11:14:37.189Z,33.32
2023-04-06T11:15:32.136Z,32.51
2023-04-06T11:16:32.265Z,33.35
2023-04-06T11:17:32.127Z,32.76
2023-04-06T11:18:32.106Z,33.18
2023-04-06T11:19:32.116Z,32.96
2023-04-06T11:20:32.103Z,33.06
2023-04-06T11:21:32.085Z,33.26
2023-04-06T11:22:32.094Z,33.16
2023-04-06T11:23:32.049Z,33.48
2023-04-06T11:24:32.038Z,33.48
2023-04-06T11:25:37.103Z,33.51
2023-04-06T11:26:32.022Z,34.11
2023-04-06T11:27:32.018Z,34.31
2023-04-06T11:28:32.019Z,33.38
2023-04-06T11:29:32.172Z,33.99
2023-04-06T11:30:31.974Z,33.58
2023-04-06T11:31:32.111Z,33.97
2023-04-06T11:32:32.023Z,32.65
2023-04-06T11:33:31.938Z,33.07
2023-04-06T11:34:31.934Z,33.18
2023-04-06T11:35:31.914Z,33.47
2023-04-06T11:36:36.937Z,32.74
2023-04-06T11:37:31.892Z,32.73
2023-04-06T11:38:31.907Z,32.22
2023-04-06T11:39:31.922Z,30.90
2023-04-06T11:40:31.860Z,32.34
2023-04-06T11:41:31.894Z,32.03
2023-04-06T11:42:31.837Z,32.35
2023-04-06T11:43:31.825Z,32.06
2023-04-06T11:44:31.814Z,31.96
2023-04-06T11:45:31.840Z,32.45
2023-04-06T11:46:31.812Z,31.74
2023-04-06T11:47:36.937Z,31.63
2023-04-06T11:48:31.838Z,31.12
2023-04-06T11:49:31.759Z,30.32
2023-04-06T11:50:31.789Z,31.35
2023-04-06T11:51:31.739Z,31.15
2023-04-06T11:52:31.769Z,31.03
2023-04-06T11:53:31.718Z,31.45
2023-04-06T11:54:31.784Z,31.66
2023-04-06T11:55:33.276Z,31.57
2023-04-06T11:56:31.693Z,32.70
2023-04-06T11:57:31.675Z,32.70
2023-04-06T11:58:36.709Z,32.60
2023-04-06T11:59:31.673Z,32.57
2023-04-06T12:00:31.631Z,31.73
2023-04-06T12:01:34.166Z,31.30
2023-04-06T12:02:31.651Z,31.38
2023-04-06T12:03:31.741Z,29.25
2023-04-06T12:04:31.707Z,29.86
2023-04-06T12:05:31.577Z,29.54
2023-04-06T12:06:31.576Z,30.35
2023-04-06T12:07:31.553Z,30.24
2023-04-06T12:08:31.550Z,29.52
2023-04-06T12:09:36.594Z,29.92
2023-04-06T12:10:31.548Z,30.52
2023-04-06T12:11:31.514Z,30.52
2023-04-06T12:12:31.493Z,30.32
2023-04-06T12:13:31.484Z,30.35
2023-04-06T12:14:31.495Z,30.98
2023-04-06T12:15:31.458Z,31.49
2023-04-06T12:16:31.533Z,31.90
2023-04-06T12:17:31.480Z,31.40
2023-04-06T12:18:31.465Z,31.30
2023-04-06T12:19:32.537Z,32.54
2023-04-06T12:20:36.421Z,31.93
2023-04-06T12:21:31.404Z,32.37
2023-04-06T12:22:31.380Z,32.35
2023-04-06T12:23:31.370Z,32.64
2023-04-06T12:24:31.387Z,31.41
2023-04-06T12:25:32.379Z,30.60
2023-04-06T12:26:31.349Z,31.21
2023-04-06T12:27:31.324Z,30.29
2023-04-06T12:28:31.311Z,31.01
2023-04-06T12:29:31.305Z,31.41
2023-04-06T12:30:31.313Z,30.51
2023-04-06T12:31:36.427Z,31.42
2023-04-06T12:32:31.304Z,31.01
2023-04-06T12:33:31.265Z,31.52
2023-04-06T12:34:31.263Z,31.41
2023-04-06T12:35:31.234Z,30.58
2023-04-06T12:36:31.359Z,30.58
2023-04-06T12:37:31.212Z,31.38
2023-04-06T12:38:31.207Z,30.46
2023-04-06T12:39:31.236Z,29.63
2023-04-06T12:40:31.175Z,29.92
2023-04-06T12:41:31.190Z,28.89
2023-04-06T12:42:36.210Z,28.35
2023-04-06T12:43:31.136Z,28.15
2023-04-06T12:44:31.132Z,28.38
2023-04-06T12:45:31.116Z,29.72
2023-04-06T12:46:31.171Z,29.74
2023-04-06T12:47:31.124Z,30.87
2023-04-06T12:48:31.099Z,30.24
2023-04-06T12:49:32.127Z,29.40
2023-04-06T12:50:31.088Z,29.61
2023-04-06T12:51:31.066Z,29.74
2023-04-06T12:52:31.048Z,29.83